sensor_id;sensor_type;location;lat;lon;timestamp;P1;durP1;ratioP1;P2;durP2;ratioP2
73321;SDS011;61549;37.044;22.128;2022-07-29T00:00:08;6.88;;;6.18;;
73321;SDS011;61549;37.044;22.128;2022-07-29T00:02:35;7.60;;;5.95;;
73321;SDS011;61549;37.044;22.128;2022-07-29T00:05:01;6.43;;;5.82;;
73321;SDS011;61549;37.044;22.128;2022-07-29T00:07:28;7.05;;;5.90;;
73321;SDS011;61549;37.044;22.128;2022-07-29T00:09:53;5.97;;;5.38;;
73321;SDS011;61549;37.044;22.128;2022-07-29T00:12:20;5.72;;;5.22;;
73321;SDS011;61549;37.044;22.128;2022-07-29T00:14:47;7.32;;;5.50;;
73321;SDS011;61549;37.044;22.128;2022-07-29T00:17:13;5.65;;;5.07;;
73321;SDS011;61549;37.044;22.128;2022-07-29T00:19:39;5.75;;;5.13;;
73321;SDS011;61549;37.044;22.128;2022-07-29T00:22:05;6.28;;;4.85;;
73321;SDS011;61549;37.044;22.128;2022-07-29T00:24:31;5.28;;;4.78;;
73321;SDS011;61549;37.044;22.128;2022-07-29T00:26:56;5.15;;;4.65;;
73321;SDS011;61549;37.044;22.128;2022-07-29T00:29:22;5.32;;;4.82;;
73321;SDS011;61549;37.044;22.128;2022-07-29T00:31:48;5.13;;;4.53;;
73321;SDS011;61549;37.044;22.128;2022-07-29T00:34:14;5.28;;;4.45;;
73321;SDS011;61549;37.044;22.128;2022-07-29T00:36:59;5.80;;;4.20;;
73321;SDS011;61549;37.044;22.128;2022-07-29T00:39:25;4.78;;;4.00;;
73321;SDS011;61549;37.044;22.128;2022-07-29T00:41:51;7.13;;;3.85;;
73321;SDS011;61549;37.044;22.128;2022-07-29T00:44:17;6.55;;;4.63;;
73321;SDS011;61549;37.044;22.128;2022-07-29T00:46:43;4.20;;;3.78;;
73321;SDS011;61549;37.044;22.128;2022-07-29T00:49:09;4.45;;;4.05;;
73321;SDS011;61549;37.044;22.128;2022-07-29T00:51:37;5.30;;;4.13;;
73321;SDS011;61549;37.044;22.128;2022-07-29T00:54:04;4.35;;;3.95;;
73321;SDS011;61549;37.044;22.128;2022-07-29T00:56:31;7.68;;;4.22;;
73321;SDS011;61549;37.044;22.128;2022-07-29T00:58:58;6.57;;;4.18;;
73321;SDS011;61549;37.044;22.128;2022-07-29T01:01:24;4.18;;;3.78;;
73321;SDS011;61549;37.044;22.128;2022-07-29T01:03:50;4.30;;;3.90;;
73321;SDS011;61549;37.044;22.128;2022-07-29T01:06:18;4.38;;;3.97;;
73321;SDS011;61549;37.044;22.128;2022-07-29T01:08:45;4.38;;;3.90;;
73321;SDS011;61549;37.044;22.128;2022-07-29T01:11:12;4.97;;;4.45;;
73321;SDS011;61549;37.044;22.128;2022-07-29T01:13:40;5.22;;;4.72;;
73321;SDS011;61549;37.044;22.128;2022-07-29T01:16:18;5.75;;;5.15;;
73321;SDS011;61549;37.044;22.128;2022-07-29T01:18:51;5.60;;;5.10;;
73321;SDS011;61549;37.044;22.128;2022-07-29T01:24:30;6.72;;;5.90;;
73321;SDS011;61549;37.044;22.128;2022-07-29T01:30:21;7.07;;;6.38;;
73321;SDS011;61549;37.044;22.128;2022-07-29T01:32:50;7.15;;;6.50;;
73321;SDS011;61549;37.044;22.128;2022-07-29T01:40:54;10.25;;;7.00;;
73321;SDS011;61549;37.044;22.128;2022-07-29T01:43:31;7.20;;;6.45;;
73321;SDS011;61549;37.044;22.128;2022-07-29T01:46:11;7.65;;;6.90;;
73321;SDS011;61549;37.044;22.128;2022-07-29T01:48:47;10.18;;;7.18;;
73321;SDS011;61549;37.044;22.128;2022-07-29T01:51:19;7.63;;;6.82;;
73321;SDS011;61549;37.044;22.128;2022-07-29T01:53:55;7.20;;;6.50;;
73321;SDS011;61549;37.044;22.128;2022-07-29T01:56:31;8.15;;;7.10;;
73321;SDS011;61549;37.044;22.128;2022-07-29T01:58:58;8.90;;;7.35;;
73321;SDS011;61549;37.044;22.128;2022-07-29T02:01:26;8.65;;;7.00;;
73321;SDS011;61549;37.044;22.128;2022-07-29T02:03:54;8.05;;;7.25;;
73321;SDS011;61549;37.044;22.128;2022-07-29T02:06:22;8.48;;;7.68;;
73321;SDS011;61549;37.044;22.128;2022-07-29T02:08:48;9.75;;;7.30;;
73321;SDS011;61549;37.044;22.128;2022-07-29T02:11:16;9.13;;;8.00;;
73321;SDS011;61549;37.044;22.128;2022-07-29T02:13:42;8.45;;;7.47;;
73321;SDS011;61549;37.044;22.128;2022-07-29T02:16:10;7.68;;;6.55;;
73321;SDS011;61549;37.044;22.128;2022-07-29T02:18:37;8.85;;;7.60;;
73321;SDS011;61549;37.044;22.128;2022-07-29T02:21:06;7.38;;;6.68;;
73321;SDS011;61549;37.044;22.128;2022-07-29T02:23:33;9.45;;;6.90;;
73321;SDS011;61549;37.044;22.128;2022-07-29T02:26:02;6.78;;;6.07;;
73321;SDS011;61549;37.044;22.128;2022-07-29T02:28:28;6.65;;;5.95;;
73321;SDS011;61549;37.044;22.128;2022-07-29T02:30:56;6.53;;;5.93;;
73321;SDS011;61549;37.044;22.128;2022-07-29T02:33:25;6.22;;;5.63;;
73321;SDS011;61549;37.044;22.128;2022-07-29T02:35:52;5.60;;;5.10;;
73321;SDS011;61549;37.044;22.128;2022-07-29T02:38:20;7.80;;;5.55;;
73321;SDS011;61549;37.044;22.128;2022-07-29T02:41:13;7.72;;;5.45;;
73321;SDS011;61549;37.044;22.128;2022-07-29T02:43:56;6.45;;;5.57;;
73321;SDS011;61549;37.044;22.128;2022-07-29T02:46:30;10.57;;;5.32;;
73321;SDS011;61549;37.044;22.128;2022-07-29T02:51:51;6.00;;;5.40;;
73321;SDS011;61549;37.044;22.128;2022-07-29T02:54:22;6.13;;;5.50;;
73321;SDS011;61549;37.044;22.128;2022-07-29T02:57:14;6.10;;;5.05;;
73321;SDS011;61549;37.044;22.128;2022-07-29T02:59:47;7.57;;;5.22;;
73321;SDS011;61549;37.044;22.128;2022-07-29T03:02:17;5.55;;;5.05;;
73321;SDS011;61549;37.044;22.128;2022-07-29T03:04:45;5.30;;;4.80;;
73321;SDS011;61549;37.044;22.128;2022-07-29T03:07:14;6.90;;;5.60;;
73321;SDS011;61549;37.044;22.128;2022-07-29T03:09:43;6.47;;;4.82;;
73321;SDS011;61549;37.044;22.128;2022-07-29T03:12:10;5.82;;;4.40;;
73321;SDS011;61549;37.044;22.128;2022-07-29T03:14:36;5.95;;;4.57;;
73321;SDS011;61549;37.044;22.128;2022-07-29T03:17:03;5.18;;;3.85;;
73321;SDS011;61549;37.044;22.128;2022-07-29T03:19:29;5.63;;;4.18;;
73321;SDS011;61549;37.044;22.128;2022-07-29T03:21:57;5.47;;;4.20;;
73321;SDS011;61549;37.044;22.128;2022-07-29T03:24:27;5.03;;;4.10;;
73321;SDS011;61549;37.044;22.128;2022-07-29T03:26:54;7.22;;;4.70;;
73321;SDS011;61549;37.044;22.128;2022-07-29T03:29:21;5.60;;;4.78;;
73321;SDS011;61549;37.044;22.128;2022-07-29T03:31:47;5.43;;;4.47;;
73321;SDS011;61549;37.044;22.128;2022-07-29T03:34:13;6.13;;;4.25;;
73321;SDS011;61549;37.044;22.128;2022-07-29T03:36:38;5.90;;;4.50;;
73321;SDS011;61549;37.044;22.128;2022-07-29T03:39:04;7.55;;;4.80;;
73321;SDS011;61549;37.044;22.128;2022-07-29T03:41:31;6.28;;;4.95;;
73321;SDS011;61549;37.044;22.128;2022-07-29T03:43:58;9.30;;;5.35;;
73321;SDS011;61549;37.044;22.128;2022-07-29T03:46:26;9.80;;;5.75;;
73321;SDS011;61549;37.044;22.128;2022-07-29T03:48:55;6.55;;;5.38;;
73321;SDS011;61549;37.044;22.128;2022-07-29T03:51:24;6.97;;;5.70;;
73321;SDS011;61549;37.044;22.128;2022-07-29T03:53:51;9.40;;;6.22;;
73321;SDS011;61549;37.044;22.128;2022-07-29T03:56:17;6.72;;;5.90;;
73321;SDS011;61549;37.044;22.128;2022-07-29T03:58:48;10.13;;;5.80;;
73321;SDS011;61549;37.044;22.128;2022-07-29T04:01:16;12.02;;;6.18;;
73321;SDS011;61549;37.044;22.128;2022-07-29T04:03:43;8.02;;;6.45;;
73321;SDS011;61549;37.044;22.128;2022-07-29T04:06:12;8.35;;;6.25;;
73321;SDS011;61549;37.044;22.128;2022-07-29T04:08:39;11.02;;;6.60;;
73321;SDS011;61549;37.044;22.128;2022-07-29T04:11:05;9.13;;;6.35;;
73321;SDS011;61549;37.044;22.128;2022-07-29T04:13:31;12.02;;;6.40;;
73321;SDS011;61549;37.044;22.128;2022-07-29T04:15:58;9.52;;;6.60;;
73321;SDS011;61549;37.044;22.128;2022-07-29T04:18:24;13.50;;;6.45;;
73321;SDS011;61549;37.044;22.128;2022-07-29T04:20:50;9.82;;;6.72;;
73321;SDS011;61549;37.044;22.128;2022-07-29T04:23:16;12.95;;;6.40;;
73321;SDS011;61549;37.044;22.128;2022-07-29T04:25:42;10.82;;;6.50;;
73321;SDS011;61549;37.044;22.128;2022-07-29T04:28:08;7.78;;;6.97;;
73321;SDS011;61549;37.044;22.128;2022-07-29T04:30:35;11.20;;;6.38;;
73321;SDS011;61549;37.044;22.128;2022-07-29T04:33:03;9.45;;;6.45;;
73321;SDS011;61549;37.044;22.128;2022-07-29T04:35:32;12.43;;;7.05;;
73321;SDS011;61549;37.044;22.128;2022-07-29T04:37:59;13.20;;;7.15;;
73321;SDS011;61549;37.044;22.128;2022-07-29T04:40:25;9.27;;;6.28;;
73321;SDS011;61549;37.044;22.128;2022-07-29T04:42:51;9.88;;;7.03;;
73321;SDS011;61549;37.044;22.128;2022-07-29T04:45:17;12.35;;;7.10;;
73321;SDS011;61549;37.044;22.128;2022-07-29T04:47:43;11.35;;;7.10;;
73321;SDS011;61549;37.044;22.128;2022-07-29T04:50:09;15.95;;;7.95;;
73321;SDS011;61549;37.044;22.128;2022-07-29T04:52:35;10.27;;;7.40;;
73321;SDS011;61549;37.044;22.128;2022-07-29T04:55:02;10.65;;;6.90;;
73321;SDS011;61549;37.044;22.128;2022-07-29T04:57:29;9.90;;;6.90;;
73321;SDS011;61549;37.044;22.128;2022-07-29T04:59:55;9.23;;;7.30;;
73321;SDS011;61549;37.044;22.128;2022-07-29T05:02:21;12.95;;;7.65;;
73321;SDS011;61549;37.044;22.128;2022-07-29T05:04:47;14.38;;;7.25;;
73321;SDS011;61549;37.044;22.128;2022-07-29T05:07:13;10.10;;;7.43;;
73321;SDS011;61549;37.044;22.128;2022-07-29T05:09:39;7.55;;;5.50;;
73321;SDS011;61549;37.044;22.128;2022-07-29T05:12:05;10.15;;;6.20;;
73321;SDS011;61549;37.044;22.128;2022-07-29T05:14:31;11.57;;;5.80;;
73321;SDS011;61549;37.044;22.128;2022-07-29T05:16:57;8.20;;;5.60;;
73321;SDS011;61549;37.044;22.128;2022-07-29T05:19:23;10.20;;;5.63;;
73321;SDS011;61549;37.044;22.128;2022-07-29T05:21:49;8.40;;;5.65;;
73321;SDS011;61549;37.044;22.128;2022-07-29T05:24:15;5.50;;;4.40;;
73321;SDS011;61549;37.044;22.128;2022-07-29T05:26:41;4.93;;;4.40;;
73321;SDS011;61549;37.044;22.128;2022-07-29T05:29:07;7.38;;;4.95;;
73321;SDS011;61549;37.044;22.128;2022-07-29T05:31:34;5.22;;;4.53;;
73321;SDS011;61549;37.044;22.128;2022-07-29T05:34:00;5.63;;;4.40;;
73321;SDS011;61549;37.044;22.128;2022-07-29T05:36:25;5.18;;;4.68;;
73321;SDS011;61549;37.044;22.128;2022-07-29T05:38:51;5.10;;;4.70;;
73321;SDS011;61549;37.044;22.128;2022-07-29T05:41:20;6.90;;;4.50;;
73321;SDS011;61549;37.044;22.128;2022-07-29T05:43:46;5.57;;;4.95;;
73321;SDS011;61549;37.044;22.128;2022-07-29T05:46:12;5.30;;;4.80;;
73321;SDS011;61549;37.044;22.128;2022-07-29T05:48:39;5.55;;;5.03;;
73321;SDS011;61549;37.044;22.128;2022-07-29T05:51:04;6.60;;;5.90;;
73321;SDS011;61549;37.044;22.128;2022-07-29T05:53:30;7.63;;;6.53;;
73321;SDS011;61549;37.044;22.128;2022-07-29T05:55:56;7.57;;;6.78;;
73321;SDS011;61549;37.044;22.128;2022-07-29T05:58:22;8.23;;;7.43;;
73321;SDS011;61549;37.044;22.128;2022-07-29T06:00:48;7.70;;;6.90;;
73321;SDS011;61549;37.044;22.128;2022-07-29T06:03:14;8.32;;;7.30;;
73321;SDS011;61549;37.044;22.128;2022-07-29T06:05:40;7.88;;;7.18;;
73321;SDS011;61549;37.044;22.128;2022-07-29T06:08:06;9.02;;;7.78;;
73321;SDS011;61549;37.044;22.128;2022-07-29T06:10:32;8.63;;;7.68;;
73321;SDS011;61549;37.044;22.128;2022-07-29T06:13:01;8.45;;;7.65;;
73321;SDS011;61549;37.044;22.128;2022-07-29T06:15:27;8.60;;;7.70;;
73321;SDS011;61549;37.044;22.128;2022-07-29T06:17:53;11.00;;;8.43;;
73321;SDS011;61549;37.044;22.128;2022-07-29T06:20:19;9.93;;;8.93;;
73321;SDS011;61549;37.044;22.128;2022-07-29T06:22:45;8.95;;;8.02;;
73321;SDS011;61549;37.044;22.128;2022-07-29T06:25:11;9.15;;;8.30;;
73321;SDS011;61549;37.044;22.128;2022-07-29T06:27:37;8.82;;;7.93;;
73321;SDS011;61549;37.044;22.128;2022-07-29T06:30:03;9.73;;;8.73;;
73321;SDS011;61549;37.044;22.128;2022-07-29T06:32:32;9.70;;;8.70;;
73321;SDS011;61549;37.044;22.128;2022-07-29T06:34:58;11.70;;;8.82;;
73321;SDS011;61549;37.044;22.128;2022-07-29T06:37:24;10.77;;;8.85;;
73321;SDS011;61549;37.044;22.128;2022-07-29T06:39:50;10.02;;;9.13;;
73321;SDS011;61549;37.044;22.128;2022-07-29T06:42:44;10.23;;;9.15;;
73321;SDS011;61549;37.044;22.128;2022-07-29T06:45:11;9.05;;;8.15;;
73321;SDS011;61549;37.044;22.128;2022-07-29T06:47:36;11.50;;;8.23;;
73321;SDS011;61549;37.044;22.128;2022-07-29T06:50:03;10.38;;;8.75;;
73321;SDS011;61549;37.044;22.128;2022-07-29T06:52:29;9.80;;;8.77;;
73321;SDS011;61549;37.044;22.128;2022-07-29T06:54:55;11.88;;;9.10;;
73321;SDS011;61549;37.044;22.128;2022-07-29T06:57:21;9.40;;;8.38;;
73321;SDS011;61549;37.044;22.128;2022-07-29T06:59:47;10.02;;;8.30;;
73321;SDS011;61549;37.044;22.128;2022-07-29T07:02:13;10.27;;;8.70;;
73321;SDS011;61549;37.044;22.128;2022-07-29T07:04:39;9.85;;;8.80;;
73321;SDS011;61549;37.044;22.128;2022-07-29T07:07:05;11.38;;;8.60;;
73321;SDS011;61549;37.044;22.128;2022-07-29T07:09:31;11.23;;;9.60;;
73321;SDS011;61549;37.044;22.128;2022-07-29T07:11:57;9.45;;;8.55;;
73321;SDS011;61549;37.044;22.128;2022-07-29T07:14:23;10.45;;;8.88;;
73321;SDS011;61549;37.044;22.128;2022-07-29T07:16:51;9.52;;;8.63;;
73321;SDS011;61549;37.044;22.128;2022-07-29T07:19:17;10.32;;;8.82;;
73321;SDS011;61549;37.044;22.128;2022-07-29T07:21:44;9.40;;;8.43;;
73321;SDS011;61549;37.044;22.128;2022-07-29T07:24:10;11.43;;;8.85;;
73321;SDS011;61549;37.044;22.128;2022-07-29T07:26:35;9.05;;;8.15;;
73321;SDS011;61549;37.044;22.128;2022-07-29T07:29:01;9.32;;;8.43;;
73321;SDS011;61549;37.044;22.128;2022-07-29T07:31:27;9.25;;;8.30;;
73321;SDS011;61549;37.044;22.128;2022-07-29T07:33:53;8.57;;;7.78;;
73321;SDS011;61549;37.044;22.128;2022-07-29T07:36:19;9.45;;;8.52;;
73321;SDS011;61549;37.044;22.128;2022-07-29T07:38:45;10.13;;;8.73;;
73321;SDS011;61549;37.044;22.128;2022-07-29T07:41:11;10.50;;;8.70;;
73321;SDS011;61549;37.044;22.128;2022-07-29T07:43:37;9.52;;;8.55;;
73321;SDS011;61549;37.044;22.128;2022-07-29T07:46:02;8.82;;;8.00;;
73321;SDS011;61549;37.044;22.128;2022-07-29T07:48:29;8.60;;;7.70;;
73321;SDS011;61549;37.044;22.128;2022-07-29T07:50:54;9.13;;;8.23;;
73321;SDS011;61549;37.044;22.128;2022-07-29T07:53:21;8.70;;;7.90;;
73321;SDS011;61549;37.044;22.128;2022-07-29T07:55:46;9.70;;;7.43;;
73321;SDS011;61549;37.044;22.128;2022-07-29T07:58:12;8.60;;;7.80;;
73321;SDS011;61549;37.044;22.128;2022-07-29T08:00:38;9.57;;;8.00;;
73321;SDS011;61549;37.044;22.128;2022-07-29T08:03:04;7.53;;;6.60;;
73321;SDS011;61549;37.044;22.128;2022-07-29T08:05:30;8.15;;;7.35;;
73321;SDS011;61549;37.044;22.128;2022-07-29T08:07:56;9.32;;;7.13;;
73321;SDS011;61549;37.044;22.128;2022-07-29T08:10:22;8.25;;;6.97;;
73321;SDS011;61549;37.044;22.128;2022-07-29T08:13:07;7.97;;;6.43;;
73321;SDS011;61549;37.044;22.128;2022-07-29T08:15:34;7.18;;;6.50;;
73321;SDS011;61549;37.044;22.128;2022-07-29T08:18:00;8.00;;;6.55;;
73321;SDS011;61549;37.044;22.128;2022-07-29T08:20:26;7.30;;;6.68;;
73321;SDS011;61549;37.044;22.128;2022-07-29T08:22:52;7.57;;;6.88;;
73321;SDS011;61549;37.044;22.128;2022-07-29T08:25:19;7.90;;;7.10;;
73321;SDS011;61549;37.044;22.128;2022-07-29T08:27:48;7.68;;;6.95;;
73321;SDS011;61549;37.044;22.128;2022-07-29T08:30:14;7.43;;;6.72;;
73321;SDS011;61549;37.044;22.128;2022-07-29T08:32:40;7.47;;;6.75;;
73321;SDS011;61549;37.044;22.128;2022-07-29T08:35:06;7.00;;;6.30;;
73321;SDS011;61549;37.044;22.128;2022-07-29T08:37:32;7.03;;;6.30;;
73321;SDS011;61549;37.044;22.128;2022-07-29T08:39:58;7.10;;;6.40;;
73321;SDS011;61549;37.044;22.128;2022-07-29T08:42:24;8.23;;;6.20;;
73321;SDS011;61549;37.044;22.128;2022-07-29T08:44:50;7.43;;;6.72;;
73321;SDS011;61549;37.044;22.128;2022-07-29T08:47:16;6.93;;;6.25;;
73321;SDS011;61549;37.044;22.128;2022-07-29T08:49:42;6.68;;;5.97;;
73321;SDS011;61549;37.044;22.128;2022-07-29T08:52:10;6.97;;;6.28;;
73321;SDS011;61549;37.044;22.128;2022-07-29T08:54:37;6.75;;;5.78;;
73321;SDS011;61549;37.044;22.128;2022-07-29T08:57:04;5.97;;;5.30;;
73321;SDS011;61549;37.044;22.128;2022-07-29T08:59:30;5.80;;;5.30;;
73321;SDS011;61549;37.044;22.128;2022-07-29T09:01:59;6.57;;;5.55;;
73321;SDS011;61549;37.044;22.128;2022-07-29T09:04:32;6.80;;;6.10;;
73321;SDS011;61549;37.044;22.128;2022-07-29T09:07:00;7.63;;;6.90;;
73321;SDS011;61549;37.044;22.128;2022-07-29T09:09:30;7.20;;;6.55;;
73321;SDS011;61549;37.044;22.128;2022-07-29T09:11:55;9.45;;;7.13;;
73321;SDS011;61549;37.044;22.128;2022-07-29T09:14:23;7.35;;;6.53;;
73321;SDS011;61549;37.044;22.128;2022-07-29T09:16:53;7.53;;;6.75;;
73321;SDS011;61549;37.044;22.128;2022-07-29T09:19:36;7.07;;;6.38;;
73321;SDS011;61549;37.044;22.128;2022-07-29T09:22:06;7.05;;;6.45;;
73321;SDS011;61549;37.044;22.128;2022-07-29T09:24:45;7.95;;;7.22;;
73321;SDS011;61549;37.044;22.128;2022-07-29T09:32:54;8.00;;;7.20;;
73321;SDS011;61549;37.044;22.128;2022-07-29T09:35:23;7.20;;;6.53;;
73321;SDS011;61549;37.044;22.128;2022-07-29T09:37:50;7.55;;;6.85;;
73321;SDS011;61549;37.044;22.128;2022-07-29T09:40:18;7.07;;;6.43;;
73321;SDS011;61549;37.044;22.128;2022-07-29T09:42:45;7.18;;;6.47;;
73321;SDS011;61549;37.044;22.128;2022-07-29T09:45:12;7.60;;;6.90;;
73321;SDS011;61549;37.044;22.128;2022-07-29T09:47:50;7.35;;;6.70;;
73321;SDS011;61549;37.044;22.128;2022-07-29T09:50:16;7.57;;;6.82;;
73321;SDS011;61549;37.044;22.128;2022-07-29T09:52:49;7.97;;;6.35;;
73321;SDS011;61549;37.044;22.128;2022-07-29T09:55:16;7.82;;;6.97;;
73321;SDS011;61549;37.044;22.128;2022-07-29T09:57:43;7.57;;;6.85;;
73321;SDS011;61549;37.044;22.128;2022-07-29T10:00:11;7.43;;;6.72;;
73321;SDS011;61549;37.044;22.128;2022-07-29T10:02:39;7.53;;;6.80;;
73321;SDS011;61549;37.044;22.128;2022-07-29T10:05:09;7.82;;;7.00;;
73321;SDS011;61549;37.044;22.128;2022-07-29T10:07:47;8.90;;;6.80;;
73321;SDS011;61549;37.044;22.128;2022-07-29T10:10:21;7.32;;;6.63;;
73321;SDS011;61549;37.044;22.128;2022-07-29T10:12:50;7.10;;;6.40;;
73321;SDS011;61549;37.044;22.128;2022-07-29T10:15:18;6.88;;;6.22;;
73321;SDS011;61549;37.044;22.128;2022-07-29T10:17:44;6.80;;;6.20;;
73321;SDS011;61549;37.044;22.128;2022-07-29T10:20:10;7.82;;;6.70;;
73321;SDS011;61549;37.044;22.128;2022-07-29T10:22:37;8.80;;;6.53;;
73321;SDS011;61549;37.044;22.128;2022-07-29T10:25:04;8.15;;;6.82;;
73321;SDS011;61549;37.044;22.128;2022-07-29T10:27:30;7.85;;;7.05;;
73321;SDS011;61549;37.044;22.128;2022-07-29T10:29:56;8.07;;;7.28;;
73321;SDS011;61549;37.044;22.128;2022-07-29T10:35:15;8.50;;;7.65;;
73321;SDS011;61549;37.044;22.128;2022-07-29T10:38:02;8.40;;;7.55;;
73321;SDS011;61549;37.044;22.128;2022-07-29T10:40:52;8.55;;;7.68;;
73321;SDS011;61549;37.044;22.128;2022-07-29T10:43:50;8.63;;;7.25;;
73321;SDS011;61549;37.044;22.128;2022-07-29T10:46:18;8.57;;;7.20;;
73321;SDS011;61549;37.044;22.128;2022-07-29T10:57:18;7.90;;;7.10;;
73321;SDS011;61549;37.044;22.128;2022-07-29T11:07:27;7.60;;;6.90;;
73321;SDS011;61549;37.044;22.128;2022-07-29T11:15:04;9.40;;;7.35;;
73321;SDS011;61549;37.044;22.128;2022-07-29T11:25:46;8.45;;;7.65;;
73321;SDS011;61549;37.044;22.128;2022-07-29T11:28:50;8.52;;;7.30;;
73321;SDS011;61549;37.044;22.128;2022-07-29T11:31:32;7.88;;;7.07;;
73321;SDS011;61549;37.044;22.128;2022-07-29T11:44:58;7.70;;;6.80;;
73321;SDS011;61549;37.044;22.128;2022-07-29T11:47:24;8.50;;;6.28;;
73321;SDS011;61549;37.044;22.128;2022-07-29T11:49:52;8.80;;;6.78;;
73321;SDS011;61549;37.044;22.128;2022-07-29T11:52:19;7.10;;;6.40;;
73321;SDS011;61549;37.044;22.128;2022-07-29T11:54:49;7.35;;;6.43;;
73321;SDS011;61549;37.044;22.128;2022-07-29T11:57:16;8.10;;;6.72;;
73321;SDS011;61549;37.044;22.128;2022-07-29T11:59:44;8.80;;;6.68;;
73321;SDS011;61549;37.044;22.128;2022-07-29T12:02:12;7.35;;;6.57;;
73321;SDS011;61549;37.044;22.128;2022-07-29T12:04:52;6.72;;;6.13;;
73321;SDS011;61549;37.044;22.128;2022-07-29T12:07:26;7.35;;;6.65;;
73321;SDS011;61549;37.044;22.128;2022-07-29T12:09:53;7.80;;;6.17;;
73321;SDS011;61549;37.044;22.128;2022-07-29T12:12:19;8.40;;;6.38;;
73321;SDS011;61549;37.044;22.128;2022-07-29T12:14:46;8.43;;;5.95;;
73321;SDS011;61549;37.044;22.128;2022-07-29T12:17:25;5.80;;;5.30;;
73321;SDS011;61549;37.044;22.128;2022-07-29T12:19:52;5.97;;;5.38;;
73321;SDS011;61549;37.044;22.128;2022-07-29T12:22:28;5.47;;;4.90;;
73321;SDS011;61549;37.044;22.128;2022-07-29T12:25:05;6.35;;;5.75;;
73321;SDS011;61549;37.044;22.128;2022-07-29T12:27:34;5.68;;;5.03;;
73321;SDS011;61549;37.044;22.128;2022-07-29T12:32:34;6.15;;;5.43;;
73321;SDS011;61549;37.044;22.128;2022-07-29T12:35:05;5.90;;;5.40;;
73321;SDS011;61549;37.044;22.128;2022-07-29T12:37:35;5.88;;;5.28;;
73321;SDS011;61549;37.044;22.128;2022-07-29T12:40:03;6.80;;;5.43;;
73321;SDS011;61549;37.044;22.128;2022-07-29T12:42:31;6.05;;;5.53;;
73321;SDS011;61549;37.044;22.128;2022-07-29T12:44:57;6.57;;;5.97;;
73321;SDS011;61549;37.044;22.128;2022-07-29T12:47:23;6.05;;;5.45;;
73321;SDS011;61549;37.044;22.128;2022-07-29T12:49:49;6.57;;;5.88;;
73321;SDS011;61549;37.044;22.128;2022-07-29T12:52:23;7.28;;;5.72;;
73321;SDS011;61549;37.044;22.128;2022-07-29T12:54:49;5.60;;;5.10;;
73321;SDS011;61549;37.044;22.128;2022-07-29T12:57:15;7.03;;;5.65;;
73321;SDS011;61549;37.044;22.128;2022-07-29T12:59:41;6.93;;;6.22;;
73321;SDS011;61549;37.044;22.128;2022-07-29T13:02:07;6.10;;;5.60;;
73321;SDS011;61549;37.044;22.128;2022-07-29T13:04:57;6.93;;;5.95;;
73321;SDS011;61549;37.044;22.128;2022-07-29T13:07:24;8.27;;;6.20;;
73321;SDS011;61549;37.044;22.128;2022-07-29T13:09:52;6.40;;;5.80;;
73321;SDS011;61549;37.044;22.128;2022-07-29T13:12:18;8.65;;;6.00;;
73321;SDS011;61549;37.044;22.128;2022-07-29T13:14:46;6.03;;;5.45;;
73321;SDS011;61549;37.044;22.128;2022-07-29T13:17:20;7.05;;;5.80;;
73321;SDS011;61549;37.044;22.128;2022-07-29T13:20:03;7.28;;;5.90;;
73321;SDS011;61549;37.044;22.128;2022-07-29T13:22:31;8.38;;;5.60;;
73321;SDS011;61549;37.044;22.128;2022-07-29T13:24:58;6.50;;;5.75;;
73321;SDS011;61549;37.044;22.128;2022-07-29T13:27:28;6.32;;;5.72;;
73321;SDS011;61549;37.044;22.128;2022-07-29T13:29:58;9.98;;;5.65;;
73321;SDS011;61549;37.044;22.128;2022-07-29T13:32:26;6.18;;;5.57;;
73321;SDS011;61549;37.044;22.128;2022-07-29T13:34:53;7.82;;;5.90;;
73321;SDS011;61549;37.044;22.128;2022-07-29T13:37:19;6.07;;;5.40;;
73321;SDS011;61549;37.044;22.128;2022-07-29T13:39:45;7.75;;;5.50;;
73321;SDS011;61549;37.044;22.128;2022-07-29T13:42:12;5.97;;;5.38;;
73321;SDS011;61549;37.044;22.128;2022-07-29T13:44:38;6.18;;;5.57;;
73321;SDS011;61549;37.044;22.128;2022-07-29T13:47:05;7.05;;;5.28;;
73321;SDS011;61549;37.044;22.128;2022-07-29T13:49:34;5.97;;;5.38;;
73321;SDS011;61549;37.044;22.128;2022-07-29T13:52:01;5.93;;;5.43;;
73321;SDS011;61549;37.044;22.128;2022-07-29T13:54:29;7.35;;;5.53;;
73321;SDS011;61549;37.044;22.128;2022-07-29T13:56:55;6.93;;;5.47;;
73321;SDS011;61549;37.044;22.128;2022-07-29T13:59:21;6.07;;;5.45;;
73321;SDS011;61549;37.044;22.128;2022-07-29T14:01:47;6.45;;;5.85;;
73321;SDS011;61549;37.044;22.128;2022-07-29T14:04:13;7.78;;;5.70;;
73321;SDS011;61549;37.044;22.128;2022-07-29T14:06:38;6.43;;;5.80;;
73321;SDS011;61549;37.044;22.128;2022-07-29T14:09:04;6.07;;;5.57;;
73321;SDS011;61549;37.044;22.128;2022-07-29T14:11:36;7.15;;;5.65;;
73321;SDS011;61549;37.044;22.128;2022-07-29T14:14:03;6.18;;;5.68;;
73321;SDS011;61549;37.044;22.128;2022-07-29T14:16:29;8.30;;;5.85;;
73321;SDS011;61549;37.044;22.128;2022-07-29T14:18:55;5.95;;;5.35;;
73321;SDS011;61549;37.044;22.128;2022-07-29T14:21:21;6.78;;;5.65;;
73321;SDS011;61549;37.044;22.128;2022-07-29T14:23:47;6.35;;;5.72;;
73321;SDS011;61549;37.044;22.128;2022-07-29T14:26:13;7.00;;;5.53;;
73321;SDS011;61549;37.044;22.128;2022-07-29T14:28:39;6.07;;;5.35;;
73321;SDS011;61549;37.044;22.128;2022-07-29T14:31:04;6.05;;;5.45;;
73321;SDS011;61549;37.044;22.128;2022-07-29T14:33:30;8.65;;;5.75;;
73321;SDS011;61549;37.044;22.128;2022-07-29T14:35:56;7.18;;;6.13;;
73321;SDS011;61549;37.044;22.128;2022-07-29T14:38:22;6.50;;;5.75;;
73321;SDS011;61549;37.044;22.128;2022-07-29T14:40:48;6.55;;;5.72;;
73321;SDS011;61549;37.044;22.128;2022-07-29T14:43:14;6.32;;;5.72;;
73321;SDS011;61549;37.044;22.128;2022-07-29T14:45:40;8.30;;;5.63;;
73321;SDS011;61549;37.044;22.128;2022-07-29T14:48:06;6.55;;;5.80;;
73321;SDS011;61549;37.044;22.128;2022-07-29T14:50:32;7.63;;;5.97;;
73321;SDS011;61549;37.044;22.128;2022-07-29T14:52:59;6.70;;;5.75;;
73321;SDS011;61549;37.044;22.128;2022-07-29T14:55:26;6.13;;;5.53;;
73321;SDS011;61549;37.044;22.128;2022-07-29T14:57:52;7.03;;;5.70;;
73321;SDS011;61549;37.044;22.128;2022-07-29T15:00:18;7.25;;;5.70;;
73321;SDS011;61549;37.044;22.128;2022-07-29T15:02:45;7.22;;;5.90;;
73321;SDS011;61549;37.044;22.128;2022-07-29T15:05:12;6.32;;;5.70;;
73321;SDS011;61549;37.044;22.128;2022-07-29T15:07:38;5.93;;;5.07;;
73321;SDS011;61549;37.044;22.128;2022-07-29T15:10:04;7.13;;;5.55;;
73321;SDS011;61549;37.044;22.128;2022-07-29T15:12:31;7.47;;;5.60;;
73321;SDS011;61549;37.044;22.128;2022-07-29T15:14:57;5.75;;;5.15;;
73321;SDS011;61549;37.044;22.128;2022-07-29T15:17:24;5.70;;;5.10;;
73321;SDS011;61549;37.044;22.128;2022-07-29T15:19:50;6.40;;;5.45;;
73321;SDS011;61549;37.044;22.128;2022-07-29T15:22:16;6.05;;;5.10;;
73321;SDS011;61549;37.044;22.128;2022-07-29T15:24:42;8.18;;;5.65;;
73321;SDS011;61549;37.044;22.128;2022-07-29T15:27:09;6.10;;;5.50;;
73321;SDS011;61549;37.044;22.128;2022-07-29T15:29:39;7.38;;;5.15;;
73321;SDS011;61549;37.044;22.128;2022-07-29T15:32:06;6.70;;;5.68;;
73321;SDS011;61549;37.044;22.128;2022-07-29T15:34:32;5.72;;;5.10;;
73321;SDS011;61549;37.044;22.128;2022-07-29T15:36:59;6.80;;;5.88;;
73321;SDS011;61549;37.044;22.128;2022-07-29T15:39:26;5.90;;;5.40;;
73321;SDS011;61549;37.044;22.128;2022-07-29T15:41:52;6.35;;;5.35;;
73321;SDS011;61549;37.044;22.128;2022-07-29T15:44:18;5.97;;;5.25;;